sensor_id;sensor_type;location;lat;lon;timestamp;pressure;altitude;pressure_sealevel;temperature;humidity
64551;BME280;50945;44.472;-123.352;2022-07-21T00:00:16;100374.63;;;31.99;37.26
64551;BME280;50945;44.472;-123.352;2022-07-21T00:02:43;100373.28;;;31.88;37.95
64551;BME280;50945;44.472;-123.352;2022-07-21T00:05:09;100379.88;;;31.83;37.94
64551;BME280;50945;44.472;-123.352;2022-07-21T00:07:36;100379.03;;;31.74;37.73
64551;BME280;50945;44.472;-123.352;2022-07-21T00:10:03;100381.19;;;31.68;37.63
64551;BME280;50945;44.472;-123.352;2022-07-21T00:12:29;100376.81;;;31.62;37.70
64551;BME280;50945;44.472;-123.352;2022-07-21T00:14:55;100373.97;;;31.53;37.80
64551;BME280;50945;44.472;-123.352;2022-07-21T00:17:21;100369.66;;;31.56;37.85
64551;BME280;50945;44.472;-123.352;2022-07-21T00:19:48;100376.19;;;31.42;37.95
64551;BME280;50945;44.472;-123.352;2022-07-21T00:22:14;100376.47;;;31.32;38.19
64551;BME280;50945;44.472;-123.352;2022-07-21T00:24:40;100379.97;;;31.29;38.04
64551;BME280;50945;44.472;-123.352;2022-07-21T00:27:07;100380.75;;;31.21;38.33
64551;BME280;50945;44.472;-123.352;2022-07-21T00:29:33;100365.56;;;31.08;38.41
64551;BME280;50945;44.472;-123.352;2022-07-21T00:31:59;100374.66;;;31.05;38.85
64551;BME280;50945;44.472;-123.352;2022-07-21T00:34:26;100369.63;;;30.93;38.87
64551;BME280;50945;44.472;-123.352;2022-07-21T00:36:52;100370.19;;;30.81;38.95
64551;BME280;50945;44.472;-123.352;2022-07-21T00:39:19;100366.72;;;30.62;39.53
64551;BME280;50945;44.472;-123.352;2022-07-21T00:41:45;100373.56;;;30.47;39.88
64551;BME280;50945;44.472;-123.352;2022-07-21T00:44:22;100374.69;;;30.32;39.79
64551;BME280;50945;44.472;-123.352;2022-07-21T00:46:49;100365.13;;;30.19;40.19
64551;BME280;50945;44.472;-123.352;2022-07-21T00:49:16;100359.72;;;30.09;40.38
64551;BME280;50945;44.472;-123.352;2022-07-21T00:51:43;100359.94;;;29.99;40.24
64551;BME280;50945;44.472;-123.352;2022-07-21T00:54:10;100357.88;;;29.90;40.44
64551;BME280;50945;44.472;-123.352;2022-07-21T00:56:36;100357.59;;;29.78;40.67
64551;BME280;50945;44.472;-123.352;2022-07-21T00:59:03;100364.00;;;29.65;41.29
64551;BME280;50945;44.472;-123.352;2022-07-21T01:01:29;100355.44;;;29.56;41.48
64551;BME280;50945;44.472;-123.352;2022-07-21T01:03:55;100357.53;;;29.50;41.45
64551;BME280;50945;44.472;-123.352;2022-07-21T01:06:24;100351.69;;;29.47;41.80
64551;BME280;50945;44.472;-123.352;2022-07-21T01:08:52;100363.38;;;29.40;41.85
64551;BME280;50945;44.472;-123.352;2022-07-21T01:11:20;100364.84;;;29.37;42.46
64551;BME280;50945;44.472;-123.352;2022-07-21T01:13:47;100364.41;;;29.30;42.52
64551;BME280;50945;44.472;-123.352;2022-07-21T01:16:14;100360.34;;;29.23;42.66
64551;BME280;50945;44.472;-123.352;2022-07-21T01:18:40;100359.78;;;29.20;42.65
64551;BME280;50945;44.472;-123.352;2022-07-21T01:21:36;100359.31;;;29.13;43.72
64551;BME280;50945;44.472;-123.352;2022-07-21T01:24:04;100354.94;;;29.07;43.05
64551;BME280;50945;44.472;-123.352;2022-07-21T01:26:31;100349.41;;;29.02;43.39
64551;BME280;50945;44.472;-123.352;2022-07-21T01:29:05;100354.59;;;28.95;43.53
64551;BME280;50945;44.472;-123.352;2022-07-21T01:31:31;100352.28;;;28.83;43.97
64551;BME280;50945;44.472;-123.352;2022-07-21T01:33:57;100354.94;;;28.74;43.65
64551;BME280;50945;44.472;-123.352;2022-07-21T01:36:23;100351.69;;;28.67;43.96
64551;BME280;50945;44.472;-123.352;2022-07-21T01:38:50;100353.31;;;28.54;43.85
64551;BME280;50945;44.472;-123.352;2022-07-21T01:41:34;100355.78;;;28.37;44.05
64551;BME280;50945;44.472;-123.352;2022-07-21T01:44:06;100362.72;;;28.25;44.05
64551;BME280;50945;44.472;-123.352;2022-07-21T01:46:36;100355.56;;;28.14;44.16
64551;BME280;50945;44.472;-123.352;2022-07-21T01:49:03;100354.84;;;28.03;44.38
64551;BME280;50945;44.472;-123.352;2022-07-21T01:51:30;100358.13;;;27.92;44.42
64551;BME280;50945;44.472;-123.352;2022-07-21T01:53:57;100357.63;;;27.84;44.47
64551;BME280;50945;44.472;-123.352;2022-07-21T01:56:24;100354.69;;;27.71;44.38
64551;BME280;50945;44.472;-123.352;2022-07-21T01:58:53;100351.13;;;27.65;44.51
64551;BME280;50945;44.472;-123.352;2022-07-21T02:01:22;100344.19;;;27.57;44.56
64551;BME280;50945;44.472;-123.352;2022-07-21T02:03:49;100349.31;;;27.50;44.78
64551;BME280;50945;44.472;-123.352;2022-07-21T02:06:16;100351.34;;;27.44;45.09
64551;BME280;50945;44.472;-123.352;2022-07-21T02:08:42;100348.06;;;27.37;45.06
64551;BME280;50945;44.472;-123.352;2022-07-21T02:11:08;100351.78;;;27.33;44.95
64551;BME280;50945;44.472;-123.352;2022-07-21T02:13:35;100352.66;;;27.28;45.25
64551;BME280;50945;44.472;-123.352;2022-07-21T02:16:02;100356.88;;;27.25;45.40
64551;BME280;50945;44.472;-123.352;2022-07-21T02:18:29;100351.59;;;27.19;45.58
64551;BME280;50945;44.472;-123.352;2022-07-21T02:20:55;100358.38;;;27.12;45.50
64551;BME280;50945;44.472;-123.352;2022-07-21T02:23:23;100363.22;;;27.07;45.35
64551;BME280;50945;44.472;-123.352;2022-07-21T02:25:51;100363.00;;;26.98;45.60
64551;BME280;50945;44.472;-123.352;2022-07-21T02:28:21;100358.31;;;26.93;45.91
64551;BME280;50945;44.472;-123.352;2022-07-21T02:30:48;100361.16;;;26.88;45.91
64551;BME280;50945;44.472;-123.352;2022-07-21T02:33:14;100356.16;;;26.80;46.13
64551;BME280;50945;44.472;-123.352;2022-07-21T02:35:41;100360.72;;;26.71;46.11
64551;BME280;50945;44.472;-123.352;2022-07-21T02:38:08;100359.94;;;26.65;46.40
64551;BME280;50945;44.472;-123.352;2022-07-21T02:40:34;100360.53;;;26.57;46.33
64551;BME280;50945;44.472;-123.352;2022-07-21T02:43:01;100360.00;;;26.50;46.65
64551;BME280;50945;44.472;-123.352;2022-07-21T02:45:27;100363.75;;;26.40;46.57
64551;BME280;50945;44.472;-123.352;2022-07-21T02:47:56;100361.25;;;26.33;46.57
64551;BME280;50945;44.472;-123.352;2022-07-21T02:50:29;100363.00;;;26.24;46.79
64551;BME280;50945;44.472;-123.352;2022-07-21T02:53:00;100358.81;;;26.16;47.04
64551;BME280;50945;44.472;-123.352;2022-07-21T02:55:27;100368.97;;;26.07;47.20
64551;BME280;50945;44.472;-123.352;2022-07-21T02:58:09;100362.28;;;25.98;47.11
64551;BME280;50945;44.472;-123.352;2022-07-21T03:00:41;100360.34;;;25.88;47.63
64551;BME280;50945;44.472;-123.352;2022-07-21T03:03:07;100363.50;;;25.71;47.57
64551;BME280;50945;44.472;-123.352;2022-07-21T03:05:35;100363.25;;;25.68;47.16
64551;BME280;50945;44.472;-123.352;2022-07-21T03:08:02;100365.50;;;25.60;47.32
64551;BME280;50945;44.472;-123.352;2022-07-21T03:10:28;100366.91;;;25.53;47.20
64551;BME280;50945;44.472;-123.352;2022-07-21T03:12:55;100360.22;;;25.43;47.45
64551;BME280;50945;44.472;-123.352;2022-07-21T03:15:22;100370.88;;;25.36;47.56
64551;BME280;50945;44.472;-123.352;2022-07-21T03:17:48;100370.63;;;25.28;47.76
64551;BME280;50945;44.472;-123.352;2022-07-21T03:20:14;100373.69;;;25.16;47.77
64551;BME280;50945;44.472;-123.352;2022-07-21T03:22:41;100369.81;;;25.01;47.94
64551;BME280;50945;44.472;-123.352;2022-07-21T03:25:08;100374.25;;;24.92;48.14
64551;BME280;50945;44.472;-123.352;2022-07-21T03:27:34;100381.81;;;24.81;48.24
64551;BME280;50945;44.472;-123.352;2022-07-21T03:30:08;100384.88;;;24.75;48.31
64551;BME280;50945;44.472;-123.352;2022-07-21T03:32:35;100381.53;;;24.62;48.51
64551;BME280;50945;44.472;-123.352;2022-07-21T03:35:02;100377.88;;;24.57;48.47
64551;BME280;50945;44.472;-123.352;2022-07-21T03:37:29;100383.72;;;24.50;48.55
64551;BME280;50945;44.472;-123.352;2022-07-21T03:39:56;100382.88;;;24.39;48.65
64551;BME280;50945;44.472;-123.352;2022-07-21T03:42:22;100384.50;;;24.30;48.86
64551;BME280;50945;44.472;-123.352;2022-07-21T03:44:48;100391.19;;;24.24;49.03
64551;BME280;50945;44.472;-123.352;2022-07-21T03:47:15;100388.38;;;24.14;49.09
64551;BME280;50945;44.472;-123.352;2022-07-21T03:49:41;100388.06;;;24.05;49.14
64551;BME280;50945;44.472;-123.352;2022-07-21T03:52:08;100386.09;;;23.95;49.39
64551;BME280;50945;44.472;-123.352;2022-07-21T03:54:35;100384.38;;;23.89;49.48
64551;BME280;50945;44.472;-123.352;2022-07-21T03:57:01;100383.50;;;23.83;49.55
64551;BME280;50945;44.472;-123.352;2022-07-21T03:59:27;100397.94;;;23.75;49.65
64551;BME280;50945;44.472;-123.352;2022-07-21T04:01:54;100389.00;;;23.73;49.66
64551;BME280;50945;44.472;-123.352;2022-07-21T04:04:20;100387.59;;;23.65;49.80
64551;BME280;50945;44.472;-123.352;2022-07-21T04:06:46;100391.44;;;23.59;49.87
64551;BME280;50945;44.472;-123.352;2022-07-21T04:09:13;100396.44;;;23.52;50.18
64551;BME280;50945;44.472;-123.352;2022-07-21T04:11:39;100397.78;;;23.44;50.06
64551;BME280;50945;44.472;-123.352;2022-07-21T04:14:05;100400.28;;;23.41;50.36
64551;BME280;50945;44.472;-123.352;2022-07-21T04:16:32;100404.72;;;23.37;50.44
64551;BME280;50945;44.472;-123.352;2022-07-21T04:18:58;100411.38;;;23.30;50.55
64551;BME280;50945;44.472;-123.352;2022-07-21T04:21:24;100410.75;;;23.23;50.62
64551;BME280;50945;44.472;-123.352;2022-07-21T04:23:51;100418.78;;;23.14;50.92
64551;BME280;50945;44.472;-123.352;2022-07-21T04:26:17;100416.81;;;23.10;51.13
64551;BME280;50945;44.472;-123.352;2022-07-21T04:28:43;100421.16;;;23.01;53.11
64551;BME280;50945;44.472;-123.352;2022-07-21T04:31:09;100430.88;;;22.98;51.27
64551;BME280;50945;44.472;-123.352;2022-07-21T04:33:35;100436.41;;;22.93;51.41
64551;BME280;50945;44.472;-123.352;2022-07-21T04:36:02;100444.78;;;22.93;51.54
64551;BME280;50945;44.472;-123.352;2022-07-21T04:38:28;100439.16;;;22.88;51.65
64551;BME280;50945;44.472;-123.352;2022-07-21T04:40:54;100451.69;;;22.85;51.89
64551;BME280;50945;44.472;-123.352;2022-07-21T04:43:21;100446.06;;;22.80;52.03
64551;BME280;50945;44.472;-123.352;2022-07-21T04:45:47;100450.16;;;22.72;52.17
64551;BME280;50945;44.472;-123.352;2022-07-21T04:48:13;100445.56;;;22.61;52.49
64551;BME280;50945;44.472;-123.352;2022-07-21T04:50:39;100450.50;;;22.54;52.81
64551;BME280;50945;44.472;-123.352;2022-07-21T04:53:06;100452.66;;;22.47;53.09
64551;BME280;50945;44.472;-123.352;2022-07-21T04:55:32;100453.41;;;22.37;53.38
64551;BME280;50945;44.472;-123.352;2022-07-21T04:57:58;100452.47;;;22.31;53.40
64551;BME280;50945;44.472;-123.352;2022-07-21T05:00:25;100467.69;;;22.24;53.60
64551;BME280;50945;44.472;-123.352;2022-07-21T05:02:53;100459.44;;;22.12;54.07
64551;BME280;50945;44.472;-123.352;2022-07-21T05:05:20;100460.25;;;22.07;54.16
64551;BME280;50945;44.472;-123.352;2022-07-21T05:07:47;100458.47;;;22.01;54.18
64551;BME280;50945;44.472;-123.352;2022-07-21T05:10:15;100459.53;;;21.95;54.30
64551;BME280;50945;44.472;-123.352;2022-07-21T05:12:42;100471.34;;;21.85;54.60
64551;BME280;50945;44.472;-123.352;2022-07-21T05:15:09;100469.59;;;21.79;54.51
64551;BME280;50945;44.472;-123.352;2022-07-21T05:17:37;100471.72;;;21.72;54.75
64551;BME280;50945;44.472;-123.352;2022-07-21T05:20:04;100479.41;;;21.64;55.04
64551;BME280;50945;44.472;-123.352;2022-07-21T05:22:31;100482.13;;;21.59;54.92
64551;BME280;50945;44.472;-123.352;2022-07-21T05:24:58;100490.03;;;21.51;55.29
64551;BME280;50945;44.472;-123.352;2022-07-21T05:27:24;100475.69;;;21.42;55.30
64551;BME280;50945;44.472;-123.352;2022-07-21T05:29:51;100494.16;;;21.31;55.70
64551;BME280;50945;44.472;-123.352;2022-07-21T05:32:17;100492.97;;;21.27;55.64
64551;BME280;50945;44.472;-123.352;2022-07-21T05:34:43;100496.16;;;21.19;55.79
64551;BME280;50945;44.472;-123.352;2022-07-21T05:37:10;100502.16;;;21.11;56.14
64551;BME280;50945;44.472;-123.352;2022-07-21T05:39:36;100499.34;;;20.94;58.40
64551;BME280;50945;44.472;-123.352;2022-07-21T05:42:02;100496.72;;;20.87;56.21
64551;BME280;50945;44.472;-123.352;2022-07-21T05:44:29;100499.91;;;20.79;56.30
64551;BME280;50945;44.472;-123.352;2022-07-21T05:46:54;100504.44;;;20.68;58.04
64551;BME280;50945;44.472;-123.352;2022-07-21T05:49:21;100499.03;;;20.61;56.66
64551;BME280;50945;44.472;-123.352;2022-07-21T05:51:47;100501.31;;;20.52;56.63
64551;BME280;50945;44.472;-123.352;2022-07-21T05:54:13;100509.19;;;20.44;58.83
64551;BME280;50945;44.472;-123.352;2022-07-21T05:56:39;100504.03;;;20.36;56.84
64551;BME280;50945;44.472;-123.352;2022-07-21T05:59:05;100506.97;;;20.29;59.35
64551;BME280;50945;44.472;-123.352;2022-07-21T06:01:31;100507.56;;;20.19;57.01
64551;BME280;50945;44.472;-123.352;2022-07-21T06:03:57;100503.50;;;20.10;60.86
64551;BME280;50945;44.472;-123.352;2022-07-21T06:06:24;100504.97;;;20.01;57.35
64551;BME280;50945;44.472;-123.352;2022-07-21T06:08:50;100504.13;;;19.88;61.12
64551;BME280;50945;44.472;-123.352;2022-07-21T06:11:19;100510.03;;;19.80;57.54
64551;BME280;50945;44.472;-123.352;2022-07-21T06:13:46;100505.69;;;19.72;57.94
64551;BME280;50945;44.472;-123.352;2022-07-21T06:16:12;100506.78;;;19.60;61.95
64551;BME280;50945;44.472;-123.352;2022-07-21T06:18:38;100507.59;;;19.48;58.15
64551;BME280;50945;44.472;-123.352;2022-07-21T06:21:05;100507.72;;;19.42;58.32
64551;BME280;50945;44.472;-123.352;2022-07-21T06:23:32;100503.38;;;19.34;58.66
64551;BME280;50945;44.472;-123.352;2022-07-21T06:25:58;100499.28;;;19.25;58.90
64551;BME280;50945;44.472;-123.352;2022-07-21T06:28:24;100503.09;;;19.12;62.46
64551;BME280;50945;44.472;-123.352;2022-07-21T06:30:50;100494.06;;;19.05;59.38
64551;BME280;50945;44.472;-123.352;2022-07-21T06:33:16;100502.47;;;18.98;62.58
64551;BME280;50945;44.472;-123.352;2022-07-21T06:35:43;100500.41;;;18.93;59.16
64551;BME280;50945;44.472;-123.352;2022-07-21T06:38:09;100502.66;;;18.85;61.34
64551;BME280;50945;44.472;-123.352;2022-07-21T06:40:35;100510.34;;;18.83;60.37
64551;BME280;50945;44.472;-123.352;2022-07-21T06:43:02;100505.25;;;18.79;59.42
64551;BME280;50945;44.472;-123.352;2022-07-21T06:45:28;100515.50;;;18.79;59.52
64551;BME280;50945;44.472;-123.352;2022-07-21T06:48:05;100522.13;;;18.78;60.13
64551;BME280;50945;44.472;-123.352;2022-07-21T06:50:31;100529.34;;;18.79;59.80
64551;BME280;50945;44.472;-123.352;2022-07-21T06:52:58;100539.34;;;18.80;59.60
64551;BME280;50945;44.472;-123.352;2022-07-21T06:55:25;100525.13;;;18.76;59.80
64551;BME280;50945;44.472;-123.352;2022-07-21T06:57:51;100541.00;;;18.69;59.91
64551;BME280;50945;44.472;-123.352;2022-07-21T07:00:18;100541.53;;;18.59;60.04
64551;BME280;50945;44.472;-123.352;2022-07-21T07:02:44;100549.53;;;18.49;60.25
64551;BME280;50945;44.472;-123.352;2022-07-21T07:05:11;100545.41;;;18.40;60.28
64551;BME280;50945;44.472;-123.352;2022-07-21T07:07:37;100549.56;;;18.31;60.62
64551;BME280;50945;44.472;-123.352;2022-07-21T07:10:04;100550.34;;;18.19;60.79
64551;BME280;50945;44.472;-123.352;2022-07-21T07:12:30;100548.09;;;18.10;60.82
64551;BME280;50945;44.472;-123.352;2022-07-21T07:14:57;100548.66;;;18.00;61.18
64551;BME280;50945;44.472;-123.352;2022-07-21T07:17:23;100554.69;;;17.90;60.79
64551;BME280;50945;44.472;-123.352;2022-07-21T07:19:49;100557.97;;;17.80;61.20
64551;BME280;50945;44.472;-123.352;2022-07-21T07:22:16;100555.31;;;17.67;61.79
64551;BME280;50945;44.472;-123.352;2022-07-21T07:24:42;100564.78;;;17.53;62.00
64551;BME280;50945;44.472;-123.352;2022-07-21T07:27:09;100564.44;;;17.42;61.93
64551;BME280;50945;44.472;-123.352;2022-07-21T07:29:35;100568.78;;;17.32;61.76
64551;BME280;50945;44.472;-123.352;2022-07-21T07:32:01;100569.56;;;17.14;62.43
64551;BME280;50945;44.472;-123.352;2022-07-21T07:34:28;100557.56;;;16.95;62.81
64551;BME280;50945;44.472;-123.352;2022-07-21T07:36:54;100559.56;;;16.74;62.85
64551;BME280;50945;44.472;-123.352;2022-07-21T07:39:20;100563.72;;;16.51;63.77
64551;BME280;50945;44.472;-123.352;2022-07-21T07:41:46;100562.50;;;16.34;63.73
64551;BME280;50945;44.472;-123.352;2022-07-21T07:44:13;100567.00;;;16.22;63.89
64551;BME280;50945;44.472;-123.352;2022-07-21T07:46:39;100566.22;;;16.08;64.76
64551;BME280;50945;44.472;-123.352;2022-07-21T07:49:05;100567.06;;;15.95;64.56
64551;BME280;50945;44.472;-123.352;2022-07-21T07:51:31;100567.53;;;15.85;65.18
64551;BME280;50945;44.472;-123.352;2022-07-21T07:53:58;100569.66;;;15.76;65.79
64551;BME280;50945;44.472;-123.352;2022-07-21T07:56:26;100576.22;;;15.69;65.04
64551;BME280;50945;44.472;-123.352;2022-07-21T07:58:52;100573.03;;;15.58;65.48
64551;BME280;50945;44.472;-123.352;2022-07-21T08:01:19;100573.44;;;15.55;65.48
64551;BME280;50945;44.472;-123.352;2022-07-21T08:03:45;100577.47;;;15.53;65.88
64551;BME280;50945;44.472;-123.352;2022-07-21T08:06:11;100570.88;;;15.47;66.28
64551;BME280;50945;44.472;-123.352;2022-07-21T08:08:38;100577.69;;;15.45;68.69
64551;BME280;50945;44.472;-123.352;2022-07-21T08:11:04;100571.53;;;15.43;66.09
64551;BME280;50945;44.472;-123.352;2022-07-21T08:13:30;100573.03;;;15.38;68.83
64551;BME280;50945;44.472;-123.352;2022-07-21T08:15:56;100571.31;;;15.37;65.44
64551;BME280;50945;44.472;-123.352;2022-07-21T08:18:23;100571.53;;;15.36;65.89
64551;BME280;50945;44.472;-123.352;2022-07-21T08:20:49;100577.25;;;15.34;66.10
64551;BME280;50945;44.472;-123.352;2022-07-21T08:23:16;100585.31;;;15.36;65.97
64551;BME280;50945;44.472;-123.352;2022-07-21T08:25:42;100577.03;;;15.36;66.21
64551;BME280;50945;44.472;-123.352;2022-07-21T08:28:09;100588.06;;;15.36;66.41
64551;BME280;50945;44.472;-123.352;2022-07-21T08:30:35;100586.16;;;15.36;66.29
64551;BME280;50945;44.472;-123.352;2022-07-21T08:33:04;100589.13;;;15.35;67.08
64551;BME280;50945;44.472;-123.352;2022-07-21T08:35:31;100581.28;;;15.32;66.84
64551;BME280;50945;44.472;-123.352;2022-07-21T08:38:06;100584.03;;;15.32;66.82
64551;BME280;50945;44.472;-123.352;2022-07-21T08:40:36;100581.50;;;15.30;66.39
64551;BME280;50945;44.472;-123.352;2022-07-21T08:43:03;100584.44;;;15.29;67.00
64551;BME280;50945;44.472;-123.352;2022-07-21T08:45:30;100581.28;;;15.25;67.24
64551;BME280;50945;44.472;-123.352;2022-07-21T08:47:57;100582.75;;;15.21;67.45
64551;BME280;50945;44.472;-123.352;2022-07-21T08:50:30;100578.50;;;15.18;67.07
64551;BME280;50945;44.472;-123.352;2022-07-21T08:52:57;100576.19;;;15.15;67.97
64551;BME280;50945;44.472;-123.352;2022-07-21T08:55:23;100573.84;;;15.12;67.89
64551;BME280;50945;44.472;-123.352;2022-07-21T08:57:50;100575.97;;;15.10;67.66
64551;BME280;50945;44.472;-123.352;2022-07-21T09:00:16;100579.13;;;15.07;67.96
64551;BME280;50945;44.472;-123.352;2022-07-21T09:02:43;100577.88;;;15.03;68.35
64551;BME280;50945;44.472;-123.352;2022-07-21T09:05:09;100573.59;;;15.00;67.73
64551;BME280;50945;44.472;-123.352;2022-07-21T09:07:53;100569.38;;;14.98;69.78
64551;BME280;50945;44.472;-123.352;2022-07-21T09:10:26;100571.69;;;14.94;68.82
64551;BME280;50945;44.472;-123.352;2022-07-21T09:13:00;100572.94;;;14.92;68.37
64551;BME280;50945;44.472;-123.352;2022-07-21T09:15:28;100572.31;;;14.90;68.46
64551;BME280;50945;44.472;-123.352;2022-07-21T09:18:14;100581.41;;;14.90;69.65
64551;BME280;50945;44.472;-123.352;2022-07-21T09:20:52;100575.47;;;14.87;68.77
64551;BME280;50945;44.472;-123.352;2022-07-21T09:23:21;100583.94;;;14.85;68.60
64551;BME280;50945;44.472;-123.352;2022-07-21T09:25:50;100581.41;;;14.83;68.57
64551;BME280;50945;44.472;-123.352;2022-07-21T09:28:19;100581.63;;;14.82;68.60
64551;BME280;50945;44.472;-123.352;2022-07-21T09:31:05;100582.03;;;14.79;69.17
64551;BME280;50945;44.472;-123.352;2022-07-21T09:33:36;100586.06;;;14.76;68.45
64551;BME280;50945;44.472;-123.352;2022-07-21T09:36:15;100590.03;;;14.74;69.42
64551;BME280;50945;44.472;-123.352;2022-07-21T09:41:14;100595.13;;;14.70;71.26
64551;BME280;50945;44.472;-123.352;2022-07-21T09:43:46;100586.63;;;14.65;69.41
64551;BME280;50945;44.472;-123.352;2022-07-21T09:46:17;100591.69;;;14.61;69.49
64551;BME280;50945;44.472;-123.352;2022-07-21T09:48:45;100603.78;;;14.60;69.60
64551;BME280;50945;44.472;-123.352;2022-07-21T09:54:07;100599.50;;;14.58;70.47
64551;BME280;50945;44.472;-123.352;2022-07-21T09:56:36;100594.19;;;14.56;69.68
64551;BME280;50945;44.472;-123.352;2022-07-21T09:59:05;100590.38;;;14.57;69.81
64551;BME280;50945;44.472;-123.352;2022-07-21T10:01:32;100594.84;;;14.58;69.45
64551;BME280;50945;44.472;-123.352;2022-07-21T10:03:59;100597.59;;;14.58;69.60
64551;BME280;50945;44.472;-123.352;2022-07-21T10:06:29;100607.56;;;14.59;69.87
64551;BME280;50945;44.472;-123.352;2022-07-21T10:08:57;100601.03;;;14.60;69.85
64551;BME280;50945;44.472;-123.352;2022-07-21T10:11:25;100592.97;;;14.59;69.86
64551;BME280;50945;44.472;-123.352;2022-07-21T10:13:51;100595.03;;;14.57;69.94
64551;BME280;50945;44.472;-123.352;2022-07-21T10:16:18;100605.19;;;14.56;69.99
64551;BME280;50945;44.472;-123.352;2022-07-21T10:23:57;100603.69;;;14.54;70.05
64551;BME280;50945;44.472;-123.352;2022-07-21T10:26:24;100604.75;;;14.53;69.98
64551;BME280;50945;44.472;-123.352;2022-07-21T10:28:50;100605.81;;;14.52;70.14
64551;BME280;50945;44.472;-123.352;2022-07-21T10:31:19;100603.91;;;14.52;69.95
64551;BME280;50945;44.472;-123.352;2022-07-21T10:47:10;100611.97;;;14.54;71.71
64551;BME280;50945;44.472;-123.352;2022-07-21T10:49:57;100618.69;;;14.51;71.17
64551;BME280;50945;44.472;-123.352;2022-07-21T10:57:39;100619.25;;;14.33;70.82
64551;BME280;50945;44.472;-123.352;2022-07-21T11:02:51;100620.28;;;14.25;71.06
64551;BME280;50945;44.472;-123.352;2022-07-21T11:05:18;100609.47;;;14.24;70.79
64551;BME280;50945;44.472;-123.352;2022-07-21T11:08:13;100614.31;;;14.22;72.42
64551;BME280;50945;44.472;-123.352;2022-07-21T11:10:45;100611.78;;;14.20;71.03
64551;BME280;50945;44.472;-123.352;2022-07-21T11:13:13;100621.06;;;14.19;71.25
64551;BME280;50945;44.472;-123.352;2022-07-21T11:15:47;100619.19;;;14.20;70.99
64551;BME280;50945;44.472;-123.352;2022-07-21T11:18:18;100619.19;;;14.20;71.08
64551;BME280;50945;44.472;-123.352;2022-07-21T11:21:01;100633.56;;;14.22;72.54
64551;BME280;50945;44.472;-123.352;2022-07-21T11:26:06;100627.63;;;14.18;71.49
64551;BME280;50945;44.472;-123.352;2022-07-21T11:28:33;100630.56;;;14.17;70.98
64551;BME280;50945;44.472;-123.352;2022-07-21T11:33:43;100623.38;;;14.16;71.08
64551;BME280;50945;44.472;-123.352;2022-07-21T11:36:10;100625.91;;;14.17;71.30
64551;BME280;50945;44.472;-123.352;2022-07-21T11:39:17;100631.41;;;14.17;73.98
64551;BME280;50945;44.472;-123.352;2022-07-21T11:41:45;100629.94;;;14.15;71.74
64551;BME280;50945;44.472;-123.352;2022-07-21T11:44:11;100634.78;;;14.13;71.63
64551;BME280;50945;44.472;-123.352;2022-07-21T11:46:50;100636.03;;;14.10;71.67
64551;BME280;50945;44.472;-123.352;2022-07-21T11:49:18;100640.88;;;14.08;71.74
64551;BME280;50945;44.472;-123.352;2022-07-21T11:57:18;100638.50;;;13.98;71.84
64551;BME280;50945;44.472;-123.352;2022-07-21T11:59:46;100636.78;;;13.97;71.83
64551;BME280;50945;44.472;-123.352;2022-07-21T12:02:21;100635.75;;;13.98;71.95
64551;BME280;50945;44.472;-123.352;2022-07-21T12:04:56;100639.72;;;13.96;71.85
64551;BME280;50945;44.472;-123.352;2022-07-21T12:10:03;100637.38;;;13.93;72.17
64551;BME280;50945;44.472;-123.352;2022-07-21T12:12:47;100635.69;;;13.92;73.63
64551;BME280;50945;44.472;-123.352;2022-07-21T12:15:17;100643.09;;;13.91;72.35
64551;BME280;50945;44.472;-123.352;2022-07-21T12:17:49;100646.88;;;13.90;72.26
64551;BME280;50945;44.472;-123.352;2022-07-21T12:22:50;100654.03;;;13.84;72.51
64551;BME280;50945;44.472;-123.352;2022-07-21T12:25:17;100654.41;;;13.81;72.09
64551;BME280;50945;44.472;-123.352;2022-07-21T12:27:55;100653.50;;;13.74;72.50
64551;BME280;50945;44.472;-123.352;2022-07-21T12:33:12;100657.00;;;13.61;73.33
64551;BME280;50945;44.472;-123.352;2022-07-21T12:35:42;100655.47;;;13.59;72.81
64551;BME280;50945;44.472;-123.352;2022-07-21T12:38:14;100659.09;;;13.59;72.70
64551;BME280;50945;44.472;-123.352;2022-07-21T12:40:42;100656.53;;;13.58;77.65
64551;BME280;50945;44.472;-123.352;2022-07-21T12:46:13;100659.88;;;13.53;74.89
64551;BME280;50945;44.472;-123.352;2022-07-21T12:48:45;100644.84;;;13.49;73.02
64551;BME280;50945;44.472;-123.352;2022-07-21T12:51:13;100650.91;;;13.44;78.29
64551;BME280;50945;44.472;-123.352;2022-07-21T12:53:54;100655.75;;;13.42;74.61
64551;BME280;50945;44.472;-123.352;2022-07-21T12:56:26;100654.47;;;13.38;73.56
64551;BME280;50945;44.472;-123.352;2022-07-21T12:58:53;100654.19;;;13.33;73.21
64551;BME280;50945;44.472;-123.352;2022-07-21T13:01:21;100656.44;;;13.29;73.42
64551;BME280;50945;44.472;-123.352;2022-07-21T13:03:48;100652.63;;;13.30;73.64
64551;BME280;50945;44.472;-123.352;2022-07-21T13:06:15;100656.13;;;13.39;73.45
64551;BME280;50945;44.472;-123.352;2022-07-21T13:08:46;100645.22;;;13.46;73.35
64551;BME280;50945;44.472;-123.352;2022-07-21T13:11:14;100667.00;;;13.47;73.54
64551;BME280;50945;44.472;-123.352;2022-07-21T13:13:42;100662.16;;;13.49;73.48
64551;BME280;50945;44.472;-123.352;2022-07-21T13:16:08;100660.06;;;13.52;73.68
64551;BME280;50945;44.472;-123.352;2022-07-21T13:18:34;100663.47;;;13.54;73.36